Airdrie Aerodrome

CEF4 · Alberta, Kanada

Historia METAR CEF4 · Airdrie Airport

Poniżej widzisz METAR-y z ostatnich kilku dni. Wybierz rok, aby przeglądać starsze METAR-y, począwszy od roku 2007.

1 grudnia 2022

Czas Kod Pogoda Temp. Widoczność Sufit Wiatr METAR/SPECI
15:00
V
-20 °C 15 mi - 080° 080° 4 kt METAR CYYC 012200Z 08004KT 350V100 15SM FEW025 M20/M26 A2962 RMK SC1 SLP134
14:00
V
-20 °C 15 mi - Var Var 2 kt METAR CYYC 012100Z VRB02KT 15SM FEW025 M20/M26 A2961 RMK SC1 SLP132
13:00
V
-20 °C 15 mi - 010° 010° 6 kt METAR CYYC 012000Z 01006KT 15SM FEW025 M20/M25 A2961 RMK SC1 PRESFR SLP129
12:00
V
-21 °C 15 mi - 040° 040° 4 kt METAR CYYC 011900Z 04004KT 15SM FEW025 M21/M26 A2964 RMK SC1 SLP141
11:00
V
-21 °C 20 mi - 010° 010° 9 kt METAR CYYC 011800Z 01009KT 20SM FEW028 FEW150 M21/M26 A2963 RMK SC1AC1 SLP139
10:00
V
-21 °C 9 mi - 010° 010° 8 kt METAR CYYC 011700Z 01008KT 9SM -SN FEW028 SCT150 M21/M25 A2963 RMK SC2AS1 SLP139
09:00
V
-21 °C 5 mi 3.500 ft 020° 020° 6 kt METAR CYYC 011600Z 02006KT 5SM -SN BKN035 M21/M25 A2964 RMK SN1SC5 /S02/ SLP141
08:35
I
-21 °C 2 mi 5.000 ft 360° 360° 6 kt METAR CYYC 011535Z 36006KT 2SM R35R/3000VP6000FT/N -SN BKN050 M21/M24 A2964 RMK SN2SC4 SLP139
08:00
I
-21 °C 1¼ mi 2.200 ft 360° 360° 5 kt METAR CYYC 011500Z 36005KT 1 1/4SM -SN VV022 M21/M24 A2963 RMK SN8 /S01/ SLP138
07:47
I
-21 °C 1¼ mi 5.000 ft 350° 350° 5 kt SPECI CYYC 011447Z 35005KT 1 1/4SM -SN OVC050 M21/M24 A2964 RMK SN4SC4 SLP139
07:30
I
-21 °C 2 mi 5.000 ft 350° 350° 5 kt METAR CYYC 011430Z 35005KT 2SM -SN OVC050 M21/M25 A2964 RMK SN4SC4 SLP141
07:00
I
-21 °C 3 mi 5.500 ft 360° 360° 7 kt METAR CYYC 011400Z 36007KT 3SM -SN OVC055 M21/M25 A2965 RMK SN5SC3 SLP142
06:00
I
-21 °C 1¼ mi 1.800 ft 350° 350° 9 kt METAR CYYC 011300Z 35009KT 1 1/4SM -SN VV018 M21/M24 A2964 RMK SN8 /S01/ SLP138
05:51
I
-21 °C 1 mi 1.300 ft 360° 360° 8 kt METAR CYYC 011251Z 36008KT 1SM R35L/P6000FT/N R29/P6000FT/N R35R/P6000FT/U -SN VV013 M21/M24 A2964 RMK SN8 SLP139
05:40
I
-21 °C 1 mi 1.400 ft 350° 350° 8 kt METAR CYYC 011240Z 35008KT 1SM R35L/P6000FT/D R29/P6000FT/D R35R/P6000FT/D -SN VV014 M21/M24 A2964 RMK SN8 SLP140
05:19
I
-21 °C 1½ mi 1.500 ft 340° 340° 11 kt METAR CYYC 011219Z 34011KT 1 1/2SM -SN VV015 M21/M24 A2964 RMK SN8 SLP139
05:00
I
-21 °C 3 mi 2.400 ft 330° 330° 9 kt METAR CYYC 011200Z 33009KT 3SM -SN VV024 M21/M25 A2965 RMK SN8 SLP142
04:37
M
-21 °C 4 mi 2.600 ft 350° 350° 11 kt METAR CYYC 011137Z 35011KT 4SM -SN BKN026 OVC039 M21/M25 A2965 RMK SC6SC2 PRESFR SLP140
04:00
V
-21 °C 15 mi 7.600 ft 350° 350° 8 kt METAR CYYC 011100Z 35008KT 15SM SCT028 OVC076 M21/M25 A2966 RMK SC3AC5 DIST SH S/ VIS S 7 PRESFR SLP143
03:00
V
-21 °C 15 mi 10.000 ft 340° 340° 8 kt METAR CYYC 011000Z 34008KT 15SM SCT032 BKN100 BKN160 M21/M24 A2966 RMK SC3AC2AC2 SLP143
02:00
V
-21 °C 15 mi 10.000 ft 340° 340° 11 kt METAR CYYC 010900Z 34011KT 15SM SCT032 OVC100 M21/M24 A2967 RMK SC3AC3 SLP146
01:00
M
-21 °C 15 mi 2.800 ft 330° 330° 12 kt METAR CYYC 010800Z 33012KT 15SM BKN028 BKN057 M21/M24 A2967 RMK SC5SC2 SLP147
00:00
M
-21 °C 15 mi 2.800 ft 340° 340° 12 - 18 kt METAR CYYC 010700Z 34012G18KT 15SM BKN028 BKN053 M21/M24 A2967 RMK SC5SC2 SLP148

30 listopada 2022

Czas Kod Pogoda Temp. Widoczność Sufit Wiatr METAR/SPECI
23:00
V
-20 °C 15 mi - 340° 340° 12 kt METAR CYYC 010600Z 34012KT 15SM SCT130 M20/M24 A2966 RMK AC3 SLP144
22:00
V
-20 °C 15 mi 12.000 ft 340° 340° 12 kt METAR CYYC 010500Z 34012KT 15SM SCT054 BKN120 BKN160 M20/M24 A2966 RMK SC3AC2AC1 SLP143
21:00
V
-19 °C 15 mi 10.000 ft 340° 340° 12 kt METAR CYYC 010400Z 34012KT 15SM FEW021 BKN100 M19/M24 A2965 RMK SC2AC4 SLP140
20:00
V
-19 °C 15 mi - 330° 330° 13 - 18 kt METAR CYYC 010300Z 33013G18KT 15SM SCT140 M19/M23 A2964 RMK AC3 SLP137
19:13
V
-18 °C 10 mi 13.000 ft 340° 340° 12 kt METAR CYYC 010213Z 34012KT 10SM FEW064 BKN130 M18/M22 A2964 RMK SC1AC4 SLP135
19:00
V
-18 °C 10 mi 13.000 ft 340° 340° 14 - 20 kt METAR CYYC 010200Z 34014G20KT 10SM -SN FEW064 BKN130 M18/M23 A2964 RMK SC2AS4 SLP134
18:42
V
-18 °C 6 mi 6.400 ft 340° 340° 16 kt METAR CYYC 010142Z 34016KT 6SM -SN SCT030 OVC064 M18/M22 A2964 RMK SC4SC4 SLP133
18:31
I
-18 °C 1¼ mi 6.400 ft 340° 340° 10 - 17 kt METAR CYYC 010131Z 34010G17KT 1 1/4SM -SN OVC064 M18/M21 A2964 RMK SN2SC6 SLP133
18:00
V
-18 °C 10 mi 10.000 ft 340° 340° 13 kt METAR CYYC 010100Z 34013KT 10SM -SN SCT034 OVC100 M18/M22 A2964 RMK SC4AS4 SLP134
17:00
V
-18 °C 10 mi 3.400 ft 350° 350° 12 kt METAR CYYC 010000Z 35012KT 10SM -SN FEW007 OVC034 M18/M22 A2963 RMK CF2SC6 /S03/ SLP132
16:00
V
-18 °C 6 mi 3.300 ft 010° 010° 12 kt METAR CYYC 302300Z 01012KT 6SM -SN FEW013 OVC033 M18/M21 A2964 RMK SC2SC6 SLP133
15:25
M
-18 °C 4 mi 2.700 ft 020° 020° 10 kt METAR CYYC 302225Z 02010KT 4SM -SN SCT014 OVC027 M18/M21 A2963 RMK SC3SC5 SLP129
15:00
I
-17 °C 2 mi 1.000 ft 030° 030° 12 kt METAR CYYC 302200Z 03012KT 2SM -SN BKN010 OVC022 M17/M20 A2961 RMK SC5SC3 SLP121
14:00
I
-17 °C 2¼ mi 1.800 ft 040° 040° 11 kt METAR CYYC 302100Z 04011KT 2 1/4SM -SN OVC018 M17/M20 A2962 RMK SC8 SLP127
13:48
I
-16 °C 2 mi 1.500 ft 060° 060° 6 kt METAR CYYC 302048Z 06006KT 2SM -SN OVC015 M16/M20 A2962 RMK SC8 SLP126
13:00
M
-16 °C 7 mi 1.600 ft 110° 110° 7 kt METAR CYYC 302000Z 11007KT 7SM -SN BKN016 BKN034 OVC110 M16/M20 A2962 RMK SC5SC2AS1 VIS LWR W SLP126
12:00
I
-17 °C 3 mi 11.000 ft 130° 130° 10 kt METAR CYYC 301900Z 13010KT 3SM -SN BR SCT017 BKN110 M17/M20 A2964 RMK SC4AC3 SLP134
11:00
I
-17 °C 3 mi 2.500 ft 120° 120° 12 kt METAR CYYC 301800Z 12012KT 3SM -SN BR SCT017 OVC025 M17/M20 A2967 RMK SC3SC5 /S01/ PRESFR SLP144
10:07
I
-18 °C 1 mi 1.700 ft 120° 120° 9 kt METAR CYYC 301707Z 12009KT 1SM R17R/P6000FT/N R29/P6000FT/N R17L/P6000FT/N -SN BR SCT011 OVC017 M18/M20 A2972 RMK SN2CF1SC5 VIS VRB 3/4-11/4 SLP161
09:00
M
-18 °C 5 mi 2.000 ft 130° 130° 10 kt METAR CYYC 301600Z 13010KT 5SM -SN BR FEW012 OVC020 M18/M21 A2974 RMK CF1SC7 PRESFR SLP168
08:36
I
-18 °C 3 mi 2.400 ft 130° 130° 9 - 15 kt METAR CYYC 301536Z 13009G15KT 3SM -SN BR FEW013 OVC024 M18/M21 A2975 RMK CF2SC6 VIS VRB 21/4-4 SLP173
08:21
I
-18 °C 2 mi 2.400 ft 130° 130° 9 kt METAR CYYC 301521Z 13009KT 2SM -SN BR FEW009 OVC024 M18/M21 A2976 RMK CF1SC7 SLP175
08:00
M
-19 °C 4 mi 2.000 ft 130° 130° 10 kt METAR CYYC 301500Z 13010KT 4SM -SN FEW011 OVC020 M19/M21 A2976 RMK CF1SC7 SLP177
07:00
M
-18 °C 5 mi 1.600 ft 140° 140° 11 kt METAR CYYC 301400Z 14011KT 5SM -SN BKN016 OVC032 M18/M21 A2981 RMK SC6SC2 SLP192
06:54
M
-18 °C 4 mi 1.800 ft 140° 140° 11 kt METAR CYYC 301354Z 14011KT 4SM -SN BKN018 OVC034 M18/M21 A2981 RMK SC5SC3 SLP194
06:00
V
-19 °C 7 mi 3.800 ft 140° 140° 9 kt METAR CYYC 301300Z 14009KT 7SM IC FEW012 BKN038 OVC100 M19/M21 A2982 RMK SF2SC3AC3 SLP198
05:44
V
-18 °C 5 mi 3.300 ft 140° 140° 8 kt METAR CYYC 301244Z 14008KT 5SM IC FEW013 BKN033 BKN054 M18/M21 A2984 RMK SF2SC3SC2 SLP202
05:31
I
-18 °C 2¼ mi 3.300 ft 140° 140° 11 kt METAR CYYC 301231Z 14011KT 2 1/4SM -SN OVC033 M18/M21 A2984 RMK SN3SC5 SLP203
05:13
I
-18 °C 1½ mi 1.900 ft 150° 150° 11 kt METAR CYYC 301213Z 15011KT 1 1/2SM -SN VV019 M18/M21 A2985 RMK SN8 SLP205
05:00
I
-18 °C 1¼ mi 1.400 ft 140° 140° 11 kt METAR CYYC 301200Z 14011KT 1 1/4SM -SN VV014 M18/M21 A2984 RMK SN8 /S01/ SLP202
04:35
I
-18 °C 1¼ mi 1.300 ft 140° 140° 11 kt METAR CYYC 301135Z 14011KT 1 1/4SM -SN VV013 M18/M21 A2985 RMK SN8 SLP206
04:13
I
-18 °C 2 mi 2.000 ft 130° 130° 11 kt METAR CYYC 301113Z 13011KT 2SM -SN OVC020 M18/M20 A2987 RMK SN2SC6 SLP211
04:00
I
-18 °C 3 mi 2.600 ft 130° 130° 11 kt METAR CYYC 301100Z 13011KT 3SM IC FEW013 OVC026 M18/M20 A2987 RMK SF1SC7 SLP213
03:00
V
-18 °C 5 mi 5.500 ft 140° 140° 8 kt METAR CYYC 301000Z 14008KT 5SM IC FEW015 OVC055 M18/M20 A2991 RMK CF1SC7 SLP223
02:00
M
-18 °C 5 mi 2.700 ft 130° 130° 9 kt METAR CYYC 300900Z 13009KT 5SM IC FEW016 OVC027 M18/M20 A2991 RMK SF2SC6 SLP225
01:00
M
-18 °C 5 mi 2.700 ft 130° 130° 8 kt METAR CYYC 300800Z 13008KT 5SM IC SCT016 OVC027 M18/M21 A2993 RMK SF3SC5 SLP232
00:00
M
-18 °C 5 mi 2.600 ft 130° 130° 9 kt METAR CYYC 300700Z 13009KT 5SM IC FEW018 BKN026 M18/M21 A2995 RMK SC2SC5 SLP241

29 listopada 2022

Czas Kod Pogoda Temp. Widoczność Sufit Wiatr METAR/SPECI
23:00
M
-18 °C 6 mi 2.700 ft 120° 120° 9 kt METAR CYYC 300600Z 12009KT 6SM IC SCT016 BKN027 M18/M21 A2997 RMK SC3SC4 SLP247
22:00
M
-18 °C 4 mi - 140° 140° 7 kt METAR CYYC 300500Z 14007KT 4SM IC FEW011 SCT018 M18/M20 A2998 RMK IC2SF1SC1 SF TR SLP251
21:37
M
-18 °C 5 mi 1.800 ft 120° 120° 5 kt METAR CYYC 300437Z 12005KT 5SM IC SCT011 BKN018 BKN035 M18/M20 A2998 RMK SF3SC2SC1 SLP253
21:16
M
-17 °C 5 mi 1.100 ft 130° 130° 6 kt METAR CYYC 300416Z 13006KT 5SM IC BKN011 BKN018 M17/M20 A2999 RMK SC5SC2 VIS NE-SE 10 SLP255
21:00
V
-17 °C 12 mi 5.400 ft 130° 130° 5 kt METAR CYYC 300400Z 13005KT 100V180 12SM IC FEW011 SCT018 BKN054 M17/M21 A3000 RMK SC2SC1SC3 VIS SW-NW 6 SLP259
20:00
V
-17 °C 12 mi 7.200 ft 120° 120° 7 kt METAR CYYC 300300Z 12007KT 12SM FEW025 BKN072 M17/M21 A2999 RMK SC1AC4 SLP256
19:00
V
-17 °C 10 mi 7.600 ft 090° 090° 6 kt METAR CYYC 300200Z 09006KT 10SM OVC076 M17/M21 A3001 RMK AC8 SLP261
18:00
V
-17 °C 10 mi 11.000 ft 110° 110° 6 kt METAR CYYC 300100Z 11006KT 10SM OVC110 M17/M21 A3000 RMK AC8 SLP258
17:00
V
-17 °C 15 mi 11.000 ft 080° 080° 5 kt METAR CYYC 300000Z 08005KT 15SM OVC110 M17/M21 A2999 RMK AC8 SLP254
16:00
V
-16 °C 15 mi 17.000 ft 050° 050° 4 kt METAR CYYC 292300Z 05004KT 15SM BKN170 OVC300 M16/M21 A2999 RMK AC5CI3 SLP252
15:00
V
-15 °C 15 mi 30.000 ft 010° 010° 4 kt METAR CYYC 292200Z 01004KT 340V040 15SM FEW100 FEW200 BKN300 M15/M21 A2999 RMK AC1CC2CS5 AC TR SLP249
14:00
V
-15 °C 15 mi 30.000 ft 030° 030° 6 kt METAR CYYC 292100Z 03006KT 15SM FEW100 OVC300 M15/M21 A2998 RMK AC1CI8 AC TR SLP247
13:00
V
-15 °C 15 mi 30.000 ft 340° 340° 3 kt METAR CYYC 292000Z 34003KT 310V040 15SM FEW006 BKN300 M15/M22 A3000 RMK SC1CI7 SC TR SLP251
12:00
V
-16 °C 40 mi 30.000 ft 340° 340° 7 kt METAR CYYC 291900Z 34007KT 40SM OVC300 M16/M22 A3000 RMK CS8 HALO SLP253
11:00
V
-16 °C 40 mi 30.000 ft 360° 360° 9 kt METAR CYYC 291800Z 36009KT 40SM BKN300 M16/M21 A3001 RMK CS6 HALO SLP255
10:00
V
-17 °C 40 mi - 330° 330° 11 kt METAR CYYC 291700Z 33011KT 40SM FEW030 SCT300 M17/M23 A3002 RMK SC1CS2 PARAHELIA SLP260
09:00
V
-18 °C 40 mi - 330° 330° 9 kt METAR CYYC 291600Z 33009KT 40SM FEW030 FEW300 M18/M23 A3001 RMK SC1CI1 CI TR SLP256
08:00
V
-18 °C 40 mi - 340° 340° 7 kt METAR CYYC 291500Z 34007KT 40SM FEW030 FEW300 M18/M23 A3000 RMK SC1CI1 SC TR CI TR SLP255
07:00
V
-18 °C 15 mi - 320° 320° 8 kt METAR CYYC 291400Z 32008KT 15SM FEW056 M18/M22 A3000 RMK SC1 SC TR SLP254
06:17
V
-17 °C 15 mi - 320° 320° 9 kt METAR CYYC 291317Z 32009KT 15SM FEW056 M17/M22 A2999 RMK SC1 SC TR SLP249
05:00
V
-17 °C 15 mi - 310° 310° 6 kt METAR CYYC 291200Z 31006KT 15SM FEW056 M17/M22 A2998 RMK SC1 SC TR SLP245
04:00
V
-17 °C 15 mi - 340° 340° 9 kt METAR CYYC 291100Z 34009KT 15SM FEW054 M17/M22 A2998 RMK SC1 SLP243
03:00
V
-16 °C 15 mi 6.000 ft 350° 350° 14 - 19 kt METAR CYYC 291000Z 35014G19KT 15SM FEW015 BKN060 M16/M21 A2997 RMK CF1SC6 CF TR SLP237

My i strony trzecie śledzimy Twoje zachowanie internetowe na naszej stronie za pomocą plików cookie. Jeśli kontynuujesz, zakładamy, że zgadzasz się z naszymi polityka plików cookie.